Latest Weather Observations for Robe Airport

IDS60801

Issued at 11:01 am CST Saturday 30 July 2016 (issued every 30 minutes, with the page automatically refreshed every 10 minutes)

About weather observations | Map of weather stations | Latest weather observations for SA | Other Formats
Station Details ID: 026105 Name: ROBE AIRFIELD Lat: -37.18 Lon: 139.81 Height: 3.0 m
Data from the previous 72 hours. | See also: Recent months at Robe Airport
Date/Time
CST
Temp
°C
App
Temp
°C
Dew
Point
°C
Rel
Hum
%
Delta-T
°C
Wind Press
QNH
hPa
Press
MSL
hPa
Rain since
9am
mm
Dir  Spd
km/h
Gust
km/h
Spd
kts
Gust
kts
30/11:00am 13.2 6.9 9.1 76 2.1 N 32 43 17 23 1015.1 1015.1 0.0
30/10:30am 12.7 6.4 9.0 78 1.9 N 32 44 17 24 1015.5 1015.5 0.0
30/10:00am 12.2 6.3 8.9 80 1.6 N 30 41 16 22 1015.9 1015.9 0.0
30/09:30am 12.2 6.7 9.0 81 1.6 N 28 43 15 23 1016.2 1016.2 0.0
30/09:00am 11.1 5.9 8.7 85 1.2 N 26 33 14 18 1016.6 1016.6 2.6
30/08:30am 10.3 5.8 8.6 89 0.8 N 22 28 12 15 1016.9 1016.9 2.6
30/08:00am 9.9 4.6 8.5 91 0.7 N 26 33 14 18 1016.8 1016.8 2.6
30/07:30am 9.6 4.7 8.4 92 0.6 N 24 33 13 18 1017.1 1017.1 2.6
30/07:00am 9.5 5.3 8.4 93 0.5 N 20 26 11 14 1017.2 1017.2 2.6
30/06:30am 9.5 5.5 8.4 93 0.5 N 19 24 10 13 1017.6 1017.6 2.6
30/06:00am 9.5 5.6 8.6 94 0.4 N 19 26 10 14 1017.8 1017.8 2.6
30/05:30am 9.4 5.5 8.6 95 0.4 N 19 24 10 13 1018.0 1018.0 2.6
30/05:00am 9.5 6.4 8.9 96 0.3 NNE 15 19 8 10 1018.2 1018.2 2.6
30/04:30am 9.6 6.6 9.1 97 0.2 NNE 15 22 8 12 1018.5 1018.5 2.6
30/04:00am 9.5 6.8 9.0 97 0.2 NNE 13 19 7 10 1018.9 1018.9 2.6
30/03:30am 9.9 7.3 9.4 97 0.2 N 13 17 7 9 1019.3 1019.3 2.6
30/03:00am 10.0 7.9 9.7 98 0.1 N 11 15 6 8 1019.5 1019.5 2.6
30/02:30am 10.2 7.8 9.9 98 0.2 N 13 17 7 9 1019.8 1019.8 2.6
30/02:00am 10.9 8.7 10.7 99 0.1 N 13 17 7 9 1020.0 1020.0 2.4
30/01:30am 10.6 9.1 10.4 99 0.1 NNE 9 13 5 7 1020.4 1020.4 2.4
30/01:00am 10.2 8.2 10.1 99 0.1 N 11 13 6 7 1020.5 1020.5 2.4
30/12:30am 10.6 9.0 10.3 98 0.2 N 9 15 5 8 1020.9 1020.9 2.4
30/12:00am 11.4 9.7 11.2 99 0.1 NNW 11 15 6 8 1021.4 1021.4 2.4
 
Date/Time
CST
Temp
°C
App
Temp
°C
Dew
Point
°C
Rel
Hum
%
Delta-T
°C
Wind Press
QNH
hPa
Press
MSL
hPa
Rain since
9am
mm
Dir  Spd
km/h
Gust
km/h
Spd
kts
Gust
kts
29/11:30pm 11.4 8.9 11.2 99 0.1 N 15 19 8 10 1021.5 1021.5 2.4
29/11:00pm 11.3 9.2 11.1 99 0.1 N 13 17 7 9 1021.6 1021.6 2.4
29/10:30pm 11.6 9.2 11.4 99 0.1 NNW 15 19 8 10 1021.6 1021.6 2.4
29/10:00pm 11.8 10.2 11.6 99 0.1 N 11 17 6 9 1021.8 1021.8 2.4
29/09:30pm 12.1 11.6 11.9 99 0.1 N 6 9 3 5 1022.0 1022.0 2.4
29/09:00pm 11.8 11.2 11.6 99 0.1 N 6 7 3 4 1022.0 1022.0 2.2
29/08:30pm 11.9 10.7 11.6 98 0.2 N 9 9 5 5 1021.9 1021.9 2.0
29/08:00pm 11.6 10.9 11.3 98 0.2 N 6 9 3 5 1021.8 1021.8 1.0
29/07:30pm 11.4 10.6 11.1 98 0.2 W 6 7 3 4 1021.8 1021.8 0.8
29/07:00pm 9.5 8.1 8.9 96 0.3 W 6 6 3 3 1021.6 1021.6 0.8
29/06:30pm 9.8 9.2 8.9 94 0.4 W 2 4 1 2 1021.6 1021.6 0.8
29/06:00pm 11.7 11.2 10.6 93 0.6 W 4 4 2 2 1021.4 1021.4 0.8
29/05:30pm 12.5 11.7 11.1 91 0.7 W 6 9 3 5 1021.2 1021.2 0.8
29/05:00pm 13.8 13.2 11.7 87 1.1 W 6 9 3 5 1021.1 1021.1 0.8
29/04:30pm 14.5 12.7 12.2 86 1.2 W 13 19 7 10 1021.1 1021.1 0.8
29/04:00pm 14.5 12.8 12.5 88 1.1 W 13 19 7 10 1020.9 1020.9 0.8
29/03:30pm 14.3 12.6 12.5 89 1.0 W 13 20 7 11 1021.1 1021.1 0.8
29/03:00pm 14.1 12.9 12.8 92 0.7 WNW 11 22 6 12 1021.0 1021.0 0.8
29/02:30pm 13.6 12.4 12.8 95 0.4 WNW 11 19 6 10 1021.0 1021.0 0.8
29/02:00pm 13.4 11.7 12.6 95 0.4 W 13 22 7 12 1021.2 1021.2 0.8
29/01:30pm 13.5 12.3 12.7 95 0.4 WSW 11 17 6 9 1021.4 1021.4 0.8
29/01:00pm 13.9 12.2 12.5 91 0.8 SW 13 19 7 10 1021.4 1021.4 0.6
29/12:30pm 13.8 12.9 12.5 92 0.7 SW 9 19 5 10 1021.8 1021.8 0.6
29/12:00pm 14.0 13.1 12.7 92 0.7 WSW 9 17 5 9 1022.2 1022.2 0.6
29/11:30am 14.3 12.6 12.5 89 1.0 W 13 22 7 12 1022.3 1022.3 0.2
29/11:00am 13.9 12.6 12.5 91 0.8 WSW 11 22 6 12 1022.5 1022.5 0.2
29/10:30am 13.9 12.8 13.1 95 0.4 W 11 22 6 12 1022.8 1022.8 0.2
29/10:00am 12.9 10.7 12.0 94 0.5 W 15 32 8 17 1022.8 1022.8 0.2
29/09:30am 13.2 11.0 12.1 93 0.6 W 15 32 8 17 1022.7 1022.7 0.2
29/09:00am 13.6 12.6 12.3 92 0.7 W 9 17 5 9 1022.7 1022.7 3.2
29/08:30am 13.2 12.1 11.9 92 0.7 W 9 15 5 8 1022.6 1022.6 3.2
29/08:00am 12.9 11.8 11.8 93 0.6 W 9 13 5 7 1022.5 1022.5 3.2
29/07:30am 12.8 11.6 11.7 93 0.6 W 9 15 5 8 1022.2 1022.2 3.2
29/07:00am 12.8 11.6 11.5 92 0.7 W 9 17 5 9 1022.1 1022.1 3.2
29/06:30am 12.8 10.5 11.7 93 0.6 W 15 24 8 13 1022.0 1022.0 3.2
29/06:00am 12.5 11.0 11.9 96 0.3 W 11 19 6 10 1021.8 1021.8 3.2
29/05:30am 12.4 10.5 11.9 97 0.3 WNW 13 22 7 12 1021.7 1021.7 3.2
29/05:00am 12.2 9.9 11.7 97 0.3 WNW 15 22 8 12 1021.6 1021.6 3.2
29/04:30am 12.4 9.8 12.1 98 0.2 WNW 17 28 9 15 1021.4 1021.4 3.2
29/04:00am 12.6 10.5 12.3 98 0.2 W 15 24 8 13 1021.4 1021.4 2.6
29/03:30am 12.6 9.5 12.3 98 0.2 WNW 20 30 11 16 1021.5 1021.5 2.6
29/03:00am 12.5 9.0 12.2 98 0.2 WNW 22 33 12 18 1021.5 1021.5 2.6
29/02:30am 12.4 9.3 12.1 98 0.2 WNW 20 35 11 19 1022.0 1022.0 2.4
29/02:00am 12.4 9.3 12.1 98 0.2 WNW 20 32 11 17 1022.0 1022.0 2.2
29/01:30am 12.4 9.3 12.1 98 0.2 WNW 20 32 11 17 1022.0 1022.0 2.0
29/01:00am 12.6 9.5 12.3 98 0.2 WNW 20 28 11 15 1022.2 1022.2 2.0
29/12:30am 12.4 8.8 11.9 97 0.3 NW 22 35 12 19 1022.5 1022.5 1.8
29/12:00am 12.4 9.2 11.9 97 0.3 NW 20 30 11 16 1022.5 1022.5 1.4
 
Date/Time
CST
Temp
°C
App
Temp
°C
Dew
Point
°C
Rel
Hum
%
Delta-T
°C
Wind Press
QNH
hPa
Press
MSL
hPa
Rain since
9am
mm
Dir  Spd
km/h
Gust
km/h
Spd
kts
Gust
kts
28/11:30pm 12.4 9.2 11.8 96 0.3 WNW 20 26 11 14 1022.7 1022.7 1.4
28/11:00pm 12.4 9.2 11.8 96 0.3 WNW 20 35 11 19 1023.1 1023.1 1.4
28/10:30pm 12.3 9.0 11.5 95 0.4 NW 20 28 11 15 1023.1 1023.1 0.8
28/10:00pm 12.2 9.0 11.4 95 0.4 WNW 19 30 10 16 1023.3 1023.3 0.8
28/09:30pm 12.4 10.4 11.5 94 0.5 WNW 13 22 7 12 1023.7 1023.7 0.4
28/09:00pm 12.3 8.6 11.5 95 0.4 NW 22 33 12 18 1023.6 1023.6 0.4
28/08:30pm 12.4 9.2 11.3 93 0.6 WNW 19 26 10 14 1023.9 1023.9 0.2
28/08:00pm 12.7 9.3 11.3 91 0.7 NW 20 30 11 16 1023.9 1023.9 0.0
28/07:30pm 12.4 8.4 10.6 89 0.9 NW 22 35 12 19 1024.1 1024.1 0.0
28/07:00pm 13.4 10.1 10.8 84 1.4 NW 19 28 10 15 1024.2 1024.2 0.0
28/06:30pm 13.4 9.7 10.0 80 1.7 WNW 20 28 11 15 1024.1 1024.1 0.0
28/06:00pm 13.4 9.8 10.6 83 1.5 WNW 20 35 11 19 1024.1 1024.1 0.0
28/05:30pm 13.2 9.5 10.2 82 1.5 NW 20 32 11 17 1023.9 1023.9 0.0
28/05:00pm 13.3 10.3 10.5 83 1.5 NW 17 22 9 12 1023.8 1023.8 0.0
28/04:30pm 13.8 10.1 9.6 76 2.1 WNW 19 26 10 14 1023.9 1023.9 0.0
28/04:00pm 14.1 10.6 10.3 78 2.0 WNW 19 30 10 16 1024.0 1024.0 0.0
28/03:30pm 14.1 10.3 9.7 75 2.3 WNW 20 28 11 15 1024.2 1024.2 0.0
28/03:00pm 14.6 10.6 9.0 69 2.8 WNW 20 30 11 16 1024.1 1024.1 0.0
28/02:30pm 14.3 10.4 9.5 73 2.5 WNW 20 30 11 16 1024.2 1024.2 0.0
28/02:00pm 14.8 10.5 9.4 70 2.8 WNW 22 33 12 18 1024.1 1024.1 0.0
28/01:30pm 14.8 10.9 9.6 71 2.7 WNW 20 32 11 17 1024.3 1024.3 0.0
28/01:00pm 14.8 11.0 9.8 72 2.6 WNW 20 30 11 16 1024.7 1024.7 0.0
28/12:30pm 14.9 11.2 10.1 73 2.5 NW 20 28 11 15 1025.0 1025.0 0.0
28/12:00pm 15.5 10.9 9.8 69 2.9 WNW 24 37 13 20 1025.2 1025.2 0.0
28/11:30am 15.4 11.3 10.2 71 2.7 NW 22 32 12 17 1025.4 1025.4 0.0
28/11:00am 14.7 10.3 8.9 68 2.9 WNW 22 32 12 17 1025.6 1025.6 0.0
28/10:30am 15.4 11.9 8.6 64 3.4 WNW 17 26 9 14 1025.7 1025.7 0.0
28/10:00am 14.8 10.1 7.8 63 3.5 W 22 32 12 17 1025.7 1025.7 0.0
28/09:30am 14.1 9.6 8.7 70 2.7 WNW 22 30 12 16 1025.6 1025.6 0.0
28/09:00am 13.7 9.6 8.5 71 2.6 WNW 20 28 11 15 1025.5 1025.5 1.2
28/08:30am 13.4 9.8 8.3 71 2.5 WNW 17 24 9 13 1025.4 1025.4 1.2
28/08:00am 13.0 9.3 7.9 71 2.5 WNW 17 26 9 14 1025.0 1025.0 1.2
28/07:30am 12.8 9.8 7.7 71 2.5 WNW 13 24 7 13 1024.7 1024.7 1.2
28/07:00am 12.7 9.2 7.2 69 2.7 WNW 15 26 8 14 1024.6 1024.6 1.2
28/06:30am 12.7 8.4 7.0 68 2.7 W 19 30 10 16 1024.5 1024.5 1.2
28/06:00am 12.4 9.5 6.7 68 2.7 W 11 17 6 9 1024.5 1024.5 1.2
28/05:30am 12.2 9.1 7.1 71 2.4 W 13 20 7 11 1024.3 1024.3 1.2
28/05:00am 11.7 7.1 8.0 78 1.8 W 22 35 12 19 1024.5 1024.5 1.2
28/04:30am 11.9 7.9 8.2 78 1.8 W 19 30 10 16 1024.2 1024.2 1.2
28/04:00am 12.2 8.6 6.7 69 2.6 W 15 26 8 14 1024.0 1024.0 1.2
28/03:30am 11.9 8.9 7.8 76 2.0 W 13 24 7 13 1023.9 1023.9 1.2
28/03:00am 11.4 8.3 9.0 85 1.2 WSW 15 28 8 15 1024.1 1024.1 1.2
28/02:30am 11.7 7.5 8.2 79 1.7 WNW 20 37 11 20 1024.2 1024.2 1.2
28/02:00am 11.8 9.0 8.5 80 1.6 W 13 24 7 13 1024.2 1024.2 1.2
28/01:30am 11.2 7.8 9.3 88 0.9 WNW 17 33 9 18 1024.2 1024.2 1.2
28/01:00am 11.4 8.6 10.0 91 0.7 W 15 26 8 14 1024.1 1024.1 1.2
28/12:30am 10.9 8.1 10.0 94 0.5 W 15 28 8 15 1024.1 1024.1 1.2
28/12:00am 10.8 9.1 9.9 94 0.5 W 9 15 5 8 1024.1 1024.1 1.2
 
Date/Time
CST
Temp
°C
App
Temp
°C
Dew
Point
°C
Rel
Hum
%
Delta-T
°C
Wind Press
QNH
hPa
Press
MSL
hPa
Rain since
9am
mm
Dir  Spd
km/h
Gust
km/h
Spd
kts
Gust
kts
27/11:30pm 10.8 7.6 9.9 94 0.5 W 17 32 9 17 1024.4 1024.4 1.0
27/11:00pm 11.1 8.2 9.5 90 0.8 WNW 15 24 8 13 1024.3 1024.3 0.4
27/10:30pm 10.7 9.3 9.5 92 0.6 W 7 13 4 7 1024.3 1024.3 0.4
27/10:00pm 10.7 8.1 9.5 92 0.6 W 13 24 7 13 1024.5 1024.5 0.4
27/09:30pm 10.4 7.4 9.2 92 0.6 W 15 24 8 13 1024.4 1024.4 0.4
27/09:00pm 10.9 7.5 9.0 88 0.9 W 17 28 9 15 1024.5 1024.5 0.0
27/08:30pm 12.1 8.6 7.4 73 2.3 W 15 24 8 13 1024.5 1024.5 0.0
27/08:00pm 12.1 8.6 7.0 71 2.4 W 15 28 8 15 1024.4 1024.4 0.0
27/07:30pm 12.1 8.8 6.4 68 2.7 WSW 13 22 7 12 1024.1 1024.1 0.0
27/07:00pm 12.0 8.8 6.9 71 2.4 W 13 22 7 12 1023.7 1023.7 0.0
27/06:30pm 11.9 8.3 6.6 70 2.5 W 15 30 8 16 1023.4 1023.4 0.0
27/06:00pm 11.8 8.2 6.9 72 2.3 W 15 24 8 13 1023.1 1023.1 0.0
27/05:30pm 11.9 8.9 7.6 75 2.1 WSW 13 28 7 15 1022.7 1022.7 0.0
27/05:00pm 11.9 7.3 5.5 65 3.0 WNW 19 33 10 18 1022.5 1022.5 0.0
27/04:30pm 11.8 8.7 7.3 74 2.2 WSW 13 20 7 11 1022.6 1022.6 0.0
27/04:00pm 11.9 7.7 7.4 74 2.2 W 19 30 10 16 1022.4 1022.4 0.0
27/03:30pm 13.0 8.8 5.9 62 3.3 WSW 17 30 9 16 1022.2 1022.2 0.0
27/03:00pm 12.4 7.9 6.2 66 2.9 WSW 19 35 10 19 1021.9 1021.9 0.0
27/02:30pm 12.5 8.8 6.3 66 2.9 WSW 15 24 8 13 1021.6 1021.6 0.0
27/02:00pm 12.7 8.5 5.6 62 3.3 WSW 17 32 9 17 1021.4 1021.4 0.0
27/01:30pm 13.1 8.5 5.5 60 3.5 WSW 19 33 10 18 1021.2 1021.2 0.0
27/01:00pm 12.6 7.7 5.3 61 3.4 WSW 20 32 11 17 1021.0 1021.0 0.0
27/12:30pm 12.8 8.7 6.2 64 3.1 WSW 17 32 9 17 1020.9 1020.9 0.0
27/12:00pm 12.6 8.0 5.5 62 3.3 SW 19 32 10 17 1021.0 1021.0 0.0
27/11:30am 12.3 7.6 5.0 61 3.3 SW 19 30 10 16 1021.0 1021.0 0.0

Other Formats:

Comma delimited format used in spreadsheet applications
http://www.bom.gov.au/fwo/IDS60801/IDS60801.95816.axf

JavaScript Object Notation format (JSON) in row-major order
http://www.bom.gov.au/fwo/IDS60801/IDS60801.95816.json